createdAt,value
2018-05-03T00:01:29.020Z,66.41
2018-05-03T00:04:31.474Z,66.62
2018-05-03T00:07:34.041Z,67.05
2018-05-03T00:10:36.596Z,67.89
2018-05-03T00:13:39.172Z,66.78
2018-05-03T00:16:41.627Z,66.90
2018-05-03T00:19:44.193Z,67.09
2018-05-03T00:22:46.671Z,66.17
2018-05-03T00:25:49.116Z,67.51
2018-05-03T00:28:51.630Z,66.92
2018-05-03T00:31:54.140Z,64.69
2018-05-03T00:34:56.667Z,65.33
2018-05-03T00:37:59.150Z,65.98
2018-05-03T00:41:01.641Z,66.90
2018-05-03T00:44:04.186Z,67.39
2018-05-03T00:47:06.672Z,67.51
2018-05-03T00:50:09.123Z,67.69
2018-05-03T00:53:11.669Z,66.88
2018-05-03T00:56:14.147Z,67.70
2018-05-03T00:59:16.670Z,66.05
2018-05-03T01:02:19.155Z,66.84
2018-05-03T01:05:21.717Z,67.30
2018-05-03T01:08:24.177Z,68.54
2018-05-03T01:11:26.641Z,67.83
2018-05-03T01:14:29.200Z,67.72
2018-05-03T01:17:31.737Z,67.95
2018-05-03T01:20:34.228Z,68.04
2018-05-03T01:23:36.733Z,68.23
2018-05-03T01:26:39.173Z,68.62
2018-05-03T01:29:41.643Z,67.81
2018-05-03T01:32:44.170Z,68.58
2018-05-03T01:35:58.420Z,68.85
2018-05-03T01:39:00.846Z,69.81
2018-05-03T01:42:03.351Z,69.26
2018-05-03T01:45:05.847Z,69.68
2018-05-03T01:48:08.293Z,69.55
2018-05-03T01:51:10.769Z,70.34
2018-05-03T01:54:13.250Z,70.28
2018-05-03T01:57:15.743Z,69.61
2018-05-03T02:00:18.182Z,70.66
2018-05-03T02:03:20.652Z,71.06
2018-05-03T02:06:23.111Z,71.53
2018-05-03T02:09:25.666Z,71.68
2018-05-03T02:12:28.130Z,71.71
2018-05-03T02:15:30.686Z,70.81
2018-05-03T02:18:33.153Z,71.72
2018-05-03T02:21:35.715Z,72.12
2018-05-03T02:24:38.212Z,72.06
2018-05-03T02:27:40.746Z,71.91
2018-05-03T02:30:43.213Z,71.40
2018-05-03T02:33:45.696Z,72.48
2018-05-03T02:36:48.211Z,72.83
2018-05-03T02:39:50.634Z,72.65
2018-05-03T02:42:53.131Z,72.61
2018-05-03T02:45:55.628Z,72.35
2018-05-03T02:48:58.163Z,73.01
2018-05-03T02:52:00.572Z,72.75
2018-05-03T02:55:03.088Z,73.33
2018-05-03T02:58:18.438Z,73.54
2018-05-03T03:01:38.386Z,73.37
2018-05-03T03:04:58.306Z,73.57
2018-05-03T03:12:28.884Z,72.93
2018-05-03T03:15:43.787Z,73.04
2018-05-03T03:19:12.919Z,73.05
2018-05-03T03:22:32.928Z,72.48
2018-05-03T03:25:59.684Z,72.27
2018-05-03T03:29:19.642Z,72.41
2018-05-03T03:32:33.848Z,73.50
2018-05-03T03:35:57.854Z,73.25
2018-05-03T03:39:12.104Z,73.04
2018-05-03T03:42:25.463Z,72.50
2018-05-03T03:45:28.006Z,73.12
2018-05-03T03:48:30.441Z,73.47
2018-05-03T03:51:32.969Z,72.69
2018-05-03T03:54:35.408Z,73.39
2018-05-03T03:57:37.858Z,73.85
2018-05-03T04:00:40.344Z,74.14
2018-05-03T04:03:42.928Z,75.18
2018-05-03T04:06:45.414Z,76.08
2018-05-03T04:09:47.892Z,76.53
2018-05-03T04:12:50.454Z,76.70
2018-05-03T04:15:52.949Z,76.82
2018-05-03T04:19:07.135Z,77.30
2018-05-03T04:22:21.380Z,77.45
2018-05-03T04:28:59.970Z,77.53
2018-05-03T04:32:02.543Z,77.79
2018-05-03T04:35:05.030Z,77.98
2018-05-03T04:38:07.503Z,78.17
2018-05-03T04:41:09.954Z,77.70
2018-05-03T04:44:12.538Z,77.98
2018-05-03T04:47:15.035Z,78.18
2018-05-03T04:50:17.539Z,78.11
2018-05-03T04:53:19.980Z,77.76
2018-05-03T04:56:22.523Z,77.96
2018-05-03T04:59:24.987Z,78.31
2018-05-03T05:02:27.450Z,78.53
2018-05-03T05:05:29.919Z,78.76
2018-05-03T05:08:32.345Z,79.05
2018-05-03T05:11:34.823Z,79.42
2018-05-03T05:14:37.285Z,79.59
2018-05-03T05:17:39.900Z,79.60
2018-05-03T05:20:42.341Z,80.25
2018-05-03T05:23:44.835Z,80.85
2018-05-03T05:26:47.286Z,80.48
2018-05-03T05:29:49.850Z,81.05
2018-05-03T05:32:52.319Z,81.23
2018-05-03T05:35:54.806Z,80.56
2018-05-03T05:38:57.376Z,80.50
2018-05-03T05:41:59.854Z,80.63
2018-05-03T05:45:02.382Z,80.17
2018-05-03T05:48:05.005Z,79.54
2018-05-03T05:51:07.573Z,79.62
2018-05-03T05:54:10.045Z,78.84
2018-05-03T05:57:12.574Z,77.48
2018-05-03T06:00:15.146Z,79.20
2018-05-03T06:03:17.594Z,77.24
2018-05-03T06:06:20.076Z,75.50
2018-05-03T06:09:22.621Z,73.50
2018-05-03T06:12:25.153Z,74.89
2018-05-03T06:15:27.586Z,75.57
2018-05-03T06:18:30.137Z,72.91
2018-05-03T06:21:32.607Z,72.03
2018-05-03T06:24:35.076Z,70.93
2018-05-03T06:27:37.619Z,69.59
2018-05-03T06:30:40.090Z,67.33
2018-05-03T06:33:42.566Z,65.40
2018-05-03T06:36:45.052Z,64.57
2018-05-03T06:39:47.474Z,63.40
2018-05-03T06:42:49.950Z,62.95
2018-05-03T06:45:52.490Z,60.51
2018-05-03T06:48:54.950Z,59.80
2018-05-03T06:51:57.456Z,60.83
2018-05-03T06:54:59.892Z,61.42
2018-05-03T06:58:02.445Z,62.21
2018-05-03T07:01:04.953Z,63.85
2018-05-03T07:04:07.562Z,62.70
2018-05-03T07:07:09.970Z,61.25
2018-05-03T07:10:12.482Z,62.44
2018-05-03T07:13:14.925Z,61.24
2018-05-03T07:16:17.497Z,61.48
2018-05-03T07:19:19.967Z,62.13
2018-05-03T07:22:22.445Z,61.86
2018-05-03T07:25:24.941Z,62.51
2018-05-03T07:28:27.569Z,62.43
2018-05-03T07:31:30.009Z,61.44
2018-05-03T07:34:32.477Z,63.05
2018-05-03T07:37:34.967Z,60.77
2018-05-03T07:40:37.496Z,61.84
2018-05-03T07:43:40.033Z,60.61
2018-05-03T07:46:42.566Z,60.05
2018-05-03T07:49:45.080Z,58.40
2018-05-03T07:52:47.528Z,58.61
2018-05-03T07:55:50.000Z,59.95
2018-05-03T07:58:52.568Z,58.44
2018-05-03T08:01:55.048Z,59.57
2018-05-03T08:04:57.592Z,58.40
2018-05-03T08:08:00.068Z,57.91
2018-05-03T08:11:02.626Z,57.49
2018-05-03T08:14:05.176Z,55.16
2018-05-03T08:17:07.727Z,56.81
2018-05-03T08:20:10.147Z,56.62
2018-05-03T08:23:12.635Z,54.75
2018-05-03T08:26:15.216Z,55.65
2018-05-03T08:29:17.649Z,54.99
2018-05-03T08:32:20.127Z,51.95
2018-05-03T08:35:22.561Z,52.09
2018-05-03T08:38:25.060Z,51.43
2018-05-03T08:41:28.454Z,52.58
2018-05-03T08:44:30.965Z,51.05
2018-05-03T08:47:33.453Z,48.38
2018-05-03T08:50:35.911Z,47.92
2018-05-03T08:53:38.386Z,48.95
2018-05-03T08:56:40.828Z,50.02
2018-05-03T08:59:43.307Z,48.62
2018-05-03T09:02:45.767Z,47.22
2018-05-03T09:05:48.237Z,50.27
2018-05-03T09:08:50.713Z,49.48
2018-05-03T09:11:53.187Z,47.83
2018-05-03T09:14:55.717Z,48.06
2018-05-03T09:17:58.236Z,47.76
2018-05-03T09:21:00.756Z,47.66
2018-05-03T09:24:03.202Z,45.90
2018-05-03T09:27:05.662Z,47.39
2018-05-03T09:30:08.127Z,48.63
2018-05-03T09:33:10.603Z,46.17
2018-05-03T09:36:13.176Z,45.67
2018-05-03T09:39:15.723Z,45.20
2018-05-03T09:42:18.269Z,47.16
2018-05-03T09:45:20.743Z,45.40
2018-05-03T09:48:23.212Z,47.10
2018-05-03T09:51:25.681Z,47.95
2018-05-03T09:54:28.167Z,45.46
2018-05-03T09:57:30.637Z,47.44
2018-05-03T10:00:33.149Z,45.49
2018-05-03T10:03:35.609Z,45.58
2018-05-03T10:06:38.183Z,45.97
2018-05-03T10:09:40.721Z,46.09
2018-05-03T10:12:43.182Z,45.36
2018-05-03T10:15:45.665Z,46.12
2018-05-03T10:18:48.143Z,45.79
2018-05-03T10:21:50.607Z,45.08
2018-05-03T10:24:53.129Z,44.62
2018-05-03T10:27:55.578Z,45.45
2018-05-03T10:30:58.059Z,45.79
2018-05-03T10:34:00.612Z,45.07
2018-05-03T10:37:03.058Z,45.21
2018-05-03T10:40:05.632Z,43.86
2018-05-03T10:43:08.101Z,46.26
2018-05-03T10:46:10.606Z,44.01
2018-05-03T10:49:13.113Z,42.01
2018-05-03T10:52:15.584Z,44.42
2018-05-03T10:55:18.059Z,44.38
2018-05-03T10:58:20.613Z,44.53
2018-05-03T11:01:23.083Z,45.12
2018-05-03T11:04:25.552Z,41.15
2018-05-03T11:07:28.014Z,44.10
2018-05-03T11:10:30.508Z,40.31
2018-05-03T11:13:33.000Z,41.25
2018-05-03T11:16:35.504Z,42.09
2018-05-03T11:19:38.117Z,41.81
2018-05-03T11:22:40.658Z,43.93
2018-05-03T11:25:43.156Z,43.65
2018-05-03T11:28:45.612Z,45.02
2018-05-03T11:31:48.187Z,44.06
2018-05-03T11:34:50.639Z,44.60
2018-05-03T11:37:53.102Z,44.40
2018-05-03T11:40:55.658Z,44.56
2018-05-03T11:43:58.122Z,44.26
2018-05-03T11:47:00.618Z,46.03
2018-05-03T11:50:03.117Z,43.77
2018-05-03T11:53:05.587Z,42.94
2018-05-03T11:56:08.064Z,42.77
2018-05-03T11:59:10.626Z,43.05
2018-05-03T12:02:13.069Z,42.48
2018-05-03T12:05:15.500Z,41.23
2018-05-03T12:08:18.014Z,40.91
2018-05-03T12:11:20.563Z,40.21
2018-05-03T12:14:23.137Z,43.27
2018-05-03T12:17:26.229Z,43.52
2018-05-03T12:20:28.784Z,40.26
2018-05-03T12:23:31.310Z,41.10
2018-05-03T12:26:33.784Z,41.94
2018-05-03T12:29:36.288Z,39.81
2018-05-03T12:32:38.747Z,41.33
2018-05-03T12:35:41.293Z,39.61
2018-05-03T12:38:43.792Z,42.45
2018-05-03T12:41:46.295Z,39.65
2018-05-03T12:44:49.983Z,39.28
2018-05-03T12:47:52.452Z,39.91
2018-05-03T12:50:54.922Z,39.66
2018-05-03T12:53:57.418Z,41.63
2018-05-03T12:56:59.859Z,44.36
2018-05-03T13:00:02.359Z,43.19
2018-05-03T13:03:04.855Z,40.52
2018-05-03T13:06:07.403Z,40.56
2018-05-03T13:09:09.886Z,42.49
2018-05-03T13:12:12.344Z,42.80
2018-05-03T13:15:14.849Z,44.00
2018-05-03T13:18:17.348Z,41.76
2018-05-03T13:21:19.802Z,39.88
2018-05-03T13:24:22.309Z,39.27
2018-05-03T13:27:24.747Z,38.76
2018-05-03T13:30:27.283Z,40.67
2018-05-03T13:33:29.748Z,40.17
2018-05-03T13:36:32.243Z,40.78
2018-05-03T13:39:34.719Z,40.45
2018-05-03T13:42:37.188Z,39.99
2018-05-03T13:45:39.654Z,40.88
2018-05-03T13:48:42.105Z,38.76
2018-05-03T13:51:44.609Z,39.61
2018-05-03T13:54:47.088Z,40.39
2018-05-03T13:57:49.578Z,40.83
2018-05-03T14:00:52.227Z,39.34
2018-05-03T14:03:54.684Z,36.97
2018-05-03T14:06:57.145Z,37.01
2018-05-03T14:09:59.666Z,37.10
2018-05-03T14:13:02.162Z,36.08
2018-05-03T14:16:04.634Z,33.92
2018-05-03T14:19:07.211Z,33.91
2018-05-03T14:22:09.783Z,36.34
2018-05-03T14:25:12.286Z,37.54
2018-05-03T14:28:14.784Z,38.89
2018-05-03T14:31:17.346Z,38.42
2018-05-03T14:34:19.814Z,40.69
2018-05-03T14:37:22.361Z,40.49
2018-05-03T14:40:24.802Z,37.00
2018-05-03T14:43:27.285Z,37.38
2018-05-03T14:46:29.851Z,36.82
2018-05-03T14:49:33.191Z,37.11
2018-05-03T14:52:35.691Z,36.39
2018-05-03T14:55:38.136Z,39.13
2018-05-03T14:58:40.619Z,38.35
2018-05-03T15:01:43.071Z,41.39
2018-05-03T15:04:45.562Z,36.58
2018-05-03T15:07:48.053Z,40.17
2018-05-03T15:10:50.572Z,40.73
2018-05-03T15:13:53.026Z,38.05
2018-05-03T15:16:55.545Z,41.28
2018-05-03T15:19:58.025Z,38.63
2018-05-03T15:23:00.520Z,38.94
2018-05-03T15:26:03.100Z,38.87
2018-05-03T15:29:05.562Z,36.76
2018-05-03T15:32:08.083Z,40.57
2018-05-03T15:35:10.559Z,40.30
2018-05-03T15:38:13.055Z,39.85
2018-05-03T15:41:15.500Z,40.46
2018-05-03T15:44:18.144Z,40.50
2018-05-03T15:47:20.657Z,38.63
2018-05-03T15:50:23.148Z,39.11
2018-05-03T15:53:25.609Z,37.98
2018-05-03T15:56:28.158Z,39.14
2018-05-03T15:59:30.680Z,41.22
2018-05-03T16:02:33.195Z,42.51
2018-05-03T16:05:35.775Z,42.58
2018-05-03T16:08:38.253Z,43.39
2018-05-03T16:11:40.721Z,43.75
2018-05-03T16:14:43.180Z,43.61
2018-05-03T16:17:45.702Z,41.57
2018-05-03T16:20:48.146Z,41.81
2018-05-03T16:23:50.692Z,40.49
2018-05-03T16:26:53.178Z,42.23
2018-05-03T16:29:55.717Z,39.78
2018-05-03T16:32:58.210Z,38.66
2018-05-03T16:36:00.700Z,39.76
2018-05-03T16:39:03.192Z,42.43
2018-05-03T16:42:05.670Z,41.38
2018-05-03T16:45:08.126Z,39.11
2018-05-03T16:48:10.648Z,43.22
2018-05-03T16:51:13.148Z,43.19
2018-05-03T16:54:15.671Z,44.09
2018-05-03T16:57:18.175Z,45.24
2018-05-03T17:00:20.735Z,45.45
2018-05-03T17:03:23.217Z,46.26
2018-05-03T17:06:25.722Z,46.63
2018-05-03T17:09:28.254Z,46.43
2018-05-03T17:15:39.416Z,46.71
2018-05-03T17:18:41.892Z,46.06
2018-05-03T17:21:44.464Z,46.09
2018-05-03T17:24:47.008Z,46.83
2018-05-03T17:27:49.599Z,47.94
2018-05-03T17:30:52.001Z,47.74
2018-05-03T17:33:54.553Z,49.18
2018-05-03T17:36:57.146Z,48.93
2018-05-03T17:39:59.653Z,49.31
2018-05-03T17:43:02.135Z,49.30
2018-05-03T17:46:04.642Z,49.99
2018-05-03T17:49:07.211Z,48.67
2018-05-03T17:52:09.783Z,45.49
2018-05-03T17:55:12.333Z,44.87
2018-05-03T17:58:14.866Z,46.83
2018-05-03T18:01:17.330Z,47.43
2018-05-03T18:04:19.824Z,48.13
2018-05-03T18:07:22.307Z,47.62
2018-05-03T18:10:24.771Z,45.98
2018-05-03T18:13:27.267Z,48.05
2018-05-03T18:16:29.989Z,50.34
2018-05-03T18:19:32.525Z,51.26
2018-05-03T18:22:35.090Z,51.10
2018-05-03T18:25:37.607Z,51.79
2018-05-03T18:28:40.113Z,52.47
2018-05-03T18:31:42.597Z,53.46
2018-05-03T18:34:45.089Z,53.76
2018-05-03T18:37:47.649Z,54.04
2018-05-03T18:40:50.154Z,54.01
2018-05-03T18:43:52.732Z,51.14
2018-05-03T18:46:55.177Z,52.82
2018-05-03T18:49:57.758Z,53.78
2018-05-03T18:53:00.252Z,53.38
2018-05-03T18:56:02.734Z,52.42
2018-05-03T18:59:05.272Z,52.91
2018-05-03T19:02:07.742Z,53.27
2018-05-03T19:05:10.257Z,53.56
2018-05-03T19:08:12.718Z,54.22
2018-05-03T19:11:15.214Z,54.78
2018-05-03T19:14:17.744Z,55.16
2018-05-03T19:17:20.407Z,56.38
2018-05-03T19:20:23.003Z,57.25
2018-05-03T19:23:25.544Z,57.34
2018-05-03T19:26:28.099Z,58.22
2018-05-03T19:29:30.610Z,59.06
2018-05-03T19:32:33.089Z,59.71
2018-05-03T19:35:35.643Z,60.25
2018-05-03T19:38:38.224Z,60.71
2018-05-03T19:41:40.804Z,61.67
2018-05-03T19:44:43.323Z,62.24
2018-05-03T19:47:45.903Z,61.78
2018-05-03T19:50:48.376Z,62.42
2018-05-03T19:53:50.903Z,62.95
2018-05-03T19:56:53.500Z,63.36
2018-05-03T19:59:56.047Z,63.50
2018-05-03T20:02:58.525Z,63.63
2018-05-03T20:06:01.046Z,63.65
2018-05-03T20:09:03.555Z,64.41
2018-05-03T20:12:06.123Z,64.76
2018-05-03T20:15:08.674Z,65.52
2018-05-03T20:18:11.151Z,66.04
2018-05-03T20:21:13.684Z,66.07
2018-05-03T20:24:16.276Z,66.33
2018-05-03T20:27:18.778Z,66.82
2018-05-03T20:30:21.279Z,67.65
2018-05-03T20:33:23.798Z,68.26
2018-05-03T20:36:26.319Z,69.10
2018-05-03T20:39:28.840Z,69.91
2018-05-03T20:42:31.300Z,69.46
2018-05-03T20:45:33.834Z,69.51
2018-05-03T20:48:36.372Z,69.34
2018-05-03T20:51:38.875Z,69.67
2018-05-03T20:54:41.381Z,69.98
2018-05-03T20:57:43.984Z,70.03
2018-05-03T21:00:46.453Z,70.32
2018-05-03T21:03:48.939Z,70.66
2018-05-03T21:06:51.400Z,70.91
2018-05-03T21:09:53.904Z,71.88
2018-05-03T21:12:56.377Z,72.16
2018-05-03T21:15:58.873Z,72.77
2018-05-03T21:19:01.473Z,72.70
2018-05-03T21:22:04.043Z,73.01
2018-05-03T21:25:06.490Z,73.75
2018-05-03T21:28:08.966Z,74.08
2018-05-03T21:31:11.439Z,74.62
2018-05-03T21:34:13.908Z,74.96
2018-05-03T21:37:16.428Z,75.57
2018-05-03T21:40:18.901Z,76.11
2018-05-03T21:43:21.381Z,76.50
2018-05-03T21:46:23.939Z,76.49
2018-05-03T21:49:26.374Z,75.46
2018-05-03T21:52:29.018Z,75.03
2018-05-03T21:55:31.379Z,75.47
2018-05-03T21:58:33.855Z,75.72
2018-05-03T22:01:36.349Z,75.96
2018-05-03T22:04:38.869Z,76.73
2018-05-03T22:07:41.326Z,76.34
2018-05-03T22:10:43.826Z,76.24
2018-05-03T22:13:46.369Z,76.43
2018-05-03T22:16:48.853Z,76.82
2018-05-03T22:19:51.344Z,77.36
2018-05-03T22:22:53.817Z,78.11
2018-05-03T22:25:56.313Z,78.15
2018-05-03T22:28:58.774Z,78.10
2018-05-03T22:32:01.225Z,78.07
2018-05-03T22:35:03.706Z,77.66
2018-05-03T22:38:06.179Z,77.63
2018-05-03T22:41:08.656Z,77.95
2018-05-03T22:44:11.105Z,78.38
2018-05-03T22:47:13.579Z,78.43
2018-05-03T22:50:16.095Z,78.69
2018-05-03T22:53:18.599Z,79.21
2018-05-03T22:56:21.047Z,79.04
2018-05-03T22:59:23.551Z,79.28
2018-05-03T23:02:26.091Z,79.44
2018-05-03T23:05:28.521Z,79.63
2018-05-03T23:08:31.002Z,79.89
2018-05-03T23:11:33.564Z,80.21
2018-05-03T23:14:36.031Z,80.24
2018-05-03T23:17:38.502Z,80.38
2018-05-03T23:20:40.976Z,80.50
2018-05-03T23:23:43.489Z,80.22
2018-05-03T23:26:45.973Z,80.44
2018-05-03T23:29:48.501Z,80.56
2018-05-03T23:32:51.082Z,80.61
2018-05-03T23:35:53.580Z,80.78
2018-05-03T23:38:56.145Z,81.36
2018-05-03T23:41:58.576Z,81.55
2018-05-03T23:45:01.135Z,82.00
2018-05-03T23:48:03.601Z,82.00
2018-05-03T23:51:06.076Z,81.91
2018-05-03T23:54:08.601Z,81.89
2018-05-03T23:57:11.066Z,81.74
